sensor_id;sensor_type;location;lat;lon;timestamp;P1;durP1;ratioP1;P2;durP2;ratioP2
48006;SDS011;33771;48.180;11.400;2023-09-18T00:01:36;7.32;;;5.95;;
48006;SDS011;33771;48.180;11.400;2023-09-18T00:04:04;6.75;;;6.00;;
48006;SDS011;33771;48.180;11.400;2023-09-18T00:06:31;9.38;;;6.45;;
48006;SDS011;33771;48.180;11.400;2023-09-18T00:08:57;10.32;;;6.60;;
48006;SDS011;33771;48.180;11.400;2023-09-18T00:11:22;9.88;;;5.82;;
48006;SDS011;33771;48.180;11.400;2023-09-18T00:13:48;8.07;;;6.53;;
48006;SDS011;33771;48.180;11.400;2023-09-18T00:16:14;9.73;;;5.72;;
48006;SDS011;33771;48.180;11.400;2023-09-18T00:18:39;7.38;;;5.38;;
48006;SDS011;33771;48.180;11.400;2023-09-18T00:21:06;7.50;;;5.85;;
48006;SDS011;33771;48.180;11.400;2023-09-18T00:23:31;8.90;;;5.72;;
48006;SDS011;33771;48.180;11.400;2023-09-18T00:25:59;6.15;;;5.13;;
48006;SDS011;33771;48.180;11.400;2023-09-18T00:28:25;6.45;;;5.68;;
48006;SDS011;33771;48.180;11.400;2023-09-18T00:30:50;7.88;;;5.63;;
48006;SDS011;33771;48.180;11.400;2023-09-18T00:33:16;9.07;;;5.53;;
48006;SDS011;33771;48.180;11.400;2023-09-18T00:35:50;6.45;;;5.20;;
48006;SDS011;33771;48.180;11.400;2023-09-18T00:38:17;11.88;;;5.63;;
48006;SDS011;33771;48.180;11.400;2023-09-18T00:40:43;10.95;;;6.00;;
48006;SDS011;33771;48.180;11.400;2023-09-18T00:43:09;7.85;;;5.35;;
48006;SDS011;33771;48.180;11.400;2023-09-18T00:45:38;7.05;;;6.07;;
48006;SDS011;33771;48.180;11.400;2023-09-18T00:48:07;9.13;;;6.55;;
48006;SDS011;33771;48.180;11.400;2023-09-18T00:50:33;8.80;;;6.35;;
48006;SDS011;33771;48.180;11.400;2023-09-18T00:52:59;8.30;;;6.15;;
48006;SDS011;33771;48.180;11.400;2023-09-18T00:55:26;9.50;;;5.60;;
48006;SDS011;33771;48.180;11.400;2023-09-18T00:57:54;7.80;;;6.10;;
48006;SDS011;33771;48.180;11.400;2023-09-18T01:00:20;8.45;;;5.75;;
48006;SDS011;33771;48.180;11.400;2023-09-18T01:02:47;7.45;;;5.88;;
48006;SDS011;33771;48.180;11.400;2023-09-18T01:05:13;9.10;;;5.65;;
48006;SDS011;33771;48.180;11.400;2023-09-18T01:07:41;9.60;;;5.30;;
48006;SDS011;33771;48.180;11.400;2023-09-18T01:10:07;8.00;;;5.10;;
48006;SDS011;33771;48.180;11.400;2023-09-18T01:12:42;8.32;;;6.22;;
48006;SDS011;33771;48.180;11.400;2023-09-18T01:15:12;7.75;;;5.57;;
48006;SDS011;33771;48.180;11.400;2023-09-18T01:17:42;6.75;;;5.40;;
48006;SDS011;33771;48.180;11.400;2023-09-18T01:20:09;7.90;;;4.63;;
48006;SDS011;33771;48.180;11.400;2023-09-18T01:22:35;7.00;;;4.57;;
48006;SDS011;33771;48.180;11.400;2023-09-18T01:25:01;7.40;;;5.10;;
48006;SDS011;33771;48.180;11.400;2023-09-18T01:27:27;7.88;;;4.88;;
48006;SDS011;33771;48.180;11.400;2023-09-18T01:29:53;6.45;;;4.90;;
48006;SDS011;33771;48.180;11.400;2023-09-18T01:32:19;8.38;;;4.95;;
48006;SDS011;33771;48.180;11.400;2023-09-18T01:34:47;9.88;;;4.90;;
48006;SDS011;33771;48.180;11.400;2023-09-18T01:37:13;5.35;;;4.40;;
48006;SDS011;33771;48.180;11.400;2023-09-18T01:39:42;5.68;;;4.68;;
48006;SDS011;33771;48.180;11.400;2023-09-18T01:42:09;5.00;;;4.50;;
48006;SDS011;33771;48.180;11.400;2023-09-18T01:44:35;6.22;;;4.68;;
48006;SDS011;33771;48.180;11.400;2023-09-18T01:47:03;6.65;;;5.07;;
48006;SDS011;33771;48.180;11.400;2023-09-18T01:49:37;7.05;;;4.85;;
48006;SDS011;33771;48.180;11.400;2023-09-18T01:52:04;7.10;;;4.68;;
48006;SDS011;33771;48.180;11.400;2023-09-18T01:54:31;7.63;;;4.97;;
48006;SDS011;33771;48.180;11.400;2023-09-18T01:56:57;5.57;;;4.68;;
48006;SDS011;33771;48.180;11.400;2023-09-18T01:59:23;7.60;;;4.88;;
48006;SDS011;33771;48.180;11.400;2023-09-18T02:01:50;8.23;;;5.10;;
48006;SDS011;33771;48.180;11.400;2023-09-18T02:04:16;5.53;;;4.45;;
48006;SDS011;33771;48.180;11.400;2023-09-18T02:06:43;6.97;;;5.05;;
48006;SDS011;33771;48.180;11.400;2023-09-18T02:09:08;5.97;;;4.63;;
48006;SDS011;33771;48.180;11.400;2023-09-18T02:11:35;7.18;;;4.82;;
48006;SDS011;33771;48.180;11.400;2023-09-18T02:14:05;6.68;;;4.80;;
48006;SDS011;33771;48.180;11.400;2023-09-18T02:16:32;7.00;;;4.47;;
48006;SDS011;33771;48.180;11.400;2023-09-18T02:18:58;5.63;;;4.40;;
48006;SDS011;33771;48.180;11.400;2023-09-18T02:21:24;10.50;;;4.90;;
48006;SDS011;33771;48.180;11.400;2023-09-18T02:23:50;8.70;;;4.32;;
48006;SDS011;33771;48.180;11.400;2023-09-18T02:26:20;7.90;;;4.40;;
48006;SDS011;33771;48.180;11.400;2023-09-18T02:28:46;8.63;;;4.50;;
48006;SDS011;33771;48.180;11.400;2023-09-18T02:31:11;5.47;;;4.25;;
48006;SDS011;33771;48.180;11.400;2023-09-18T02:33:37;7.43;;;4.22;;
48006;SDS011;33771;48.180;11.400;2023-09-18T02:36:03;6.57;;;5.13;;
48006;SDS011;33771;48.180;11.400;2023-09-18T02:38:29;6.20;;;4.45;;
48006;SDS011;33771;48.180;11.400;2023-09-18T02:40:55;10.07;;;4.30;;
48006;SDS011;33771;48.180;11.400;2023-09-18T02:43:22;7.00;;;4.53;;
48006;SDS011;33771;48.180;11.400;2023-09-18T02:45:47;7.97;;;4.18;;
48006;SDS011;33771;48.180;11.400;2023-09-18T02:48:13;8.70;;;4.03;;
48006;SDS011;33771;48.180;11.400;2023-09-18T02:50:39;4.95;;;4.22;;
48006;SDS011;33771;48.180;11.400;2023-09-18T02:53:05;7.03;;;4.47;;
48006;SDS011;33771;48.180;11.400;2023-09-18T02:55:33;7.47;;;4.45;;
48006;SDS011;33771;48.180;11.400;2023-09-18T02:57:59;7.68;;;4.05;;
48006;SDS011;33771;48.180;11.400;2023-09-18T03:00:25;6.25;;;4.28;;
48006;SDS011;33771;48.180;11.400;2023-09-18T03:02:50;6.93;;;4.53;;
48006;SDS011;33771;48.180;11.400;2023-09-18T03:05:16;6.28;;;4.50;;
48006;SDS011;33771;48.180;11.400;2023-09-18T03:07:41;7.53;;;4.45;;
48006;SDS011;33771;48.180;11.400;2023-09-18T03:10:07;7.47;;;4.55;;
48006;SDS011;33771;48.180;11.400;2023-09-18T03:12:34;5.30;;;3.97;;
48006;SDS011;33771;48.180;11.400;2023-09-18T03:14:59;6.68;;;4.15;;
48006;SDS011;33771;48.180;11.400;2023-09-18T03:17:25;8.73;;;4.75;;
48006;SDS011;33771;48.180;11.400;2023-09-18T03:19:51;8.63;;;4.28;;
48006;SDS011;33771;48.180;11.400;2023-09-18T03:22:17;7.43;;;4.57;;
48006;SDS011;33771;48.180;11.400;2023-09-18T03:24:42;7.22;;;4.57;;
48006;SDS011;33771;48.180;11.400;2023-09-18T03:27:08;7.30;;;4.47;;
48006;SDS011;33771;48.180;11.400;2023-09-18T03:29:33;8.68;;;4.63;;
48006;SDS011;33771;48.180;11.400;2023-09-18T03:31:59;7.90;;;4.55;;
48006;SDS011;33771;48.180;11.400;2023-09-18T03:34:25;7.68;;;4.32;;
48006;SDS011;33771;48.180;11.400;2023-09-18T03:36:53;8.82;;;4.35;;
48006;SDS011;33771;48.180;11.400;2023-09-18T03:39:19;5.90;;;4.63;;
48006;SDS011;33771;48.180;11.400;2023-09-18T03:41:45;6.00;;;4.53;;
48006;SDS011;33771;48.180;11.400;2023-09-18T03:44:11;5.95;;;4.65;;
48006;SDS011;33771;48.180;11.400;2023-09-18T03:46:36;11.13;;;5.43;;
48006;SDS011;33771;48.180;11.400;2023-09-18T03:49:02;9.10;;;4.55;;
48006;SDS011;33771;48.180;11.400;2023-09-18T03:51:28;12.25;;;4.88;;
48006;SDS011;33771;48.180;11.400;2023-09-18T03:53:54;6.90;;;5.10;;
48006;SDS011;33771;48.180;11.400;2023-09-18T03:56:20;8.43;;;5.65;;
48006;SDS011;33771;48.180;11.400;2023-09-18T03:58:46;7.68;;;5.60;;
48006;SDS011;33771;48.180;11.400;2023-09-18T04:01:14;9.43;;;5.28;;
48006;SDS011;33771;48.180;11.400;2023-09-18T04:03:40;10.73;;;6.07;;
48006;SDS011;33771;48.180;11.400;2023-09-18T04:06:08;10.25;;;5.45;;
48006;SDS011;33771;48.180;11.400;2023-09-18T04:08:35;11.25;;;5.93;;
48006;SDS011;33771;48.180;11.400;2023-09-18T04:11:01;7.30;;;5.45;;
48006;SDS011;33771;48.180;11.400;2023-09-18T04:13:29;6.82;;;4.90;;
48006;SDS011;33771;48.180;11.400;2023-09-18T04:15:54;7.72;;;4.90;;
48006;SDS011;33771;48.180;11.400;2023-09-18T04:18:21;12.75;;;4.63;;
48006;SDS011;33771;48.180;11.400;2023-09-18T04:20:47;5.57;;;3.97;;
48006;SDS011;33771;48.180;11.400;2023-09-18T04:23:22;10.35;;;4.45;;
48006;SDS011;33771;48.180;11.400;2023-09-18T04:25:50;7.40;;;4.13;;
48006;SDS011;33771;48.180;11.400;2023-09-18T04:28:17;5.90;;;3.83;;
48006;SDS011;33771;48.180;11.400;2023-09-18T04:30:44;9.23;;;4.30;;
48006;SDS011;33771;48.180;11.400;2023-09-18T04:33:09;7.03;;;4.32;;
48006;SDS011;33771;48.180;11.400;2023-09-18T04:35:36;5.82;;;4.05;;
48006;SDS011;33771;48.180;11.400;2023-09-18T04:38:04;7.75;;;4.28;;
48006;SDS011;33771;48.180;11.400;2023-09-18T04:40:31;7.38;;;4.40;;
48006;SDS011;33771;48.180;11.400;2023-09-18T04:42:58;6.57;;;4.82;;
48006;SDS011;33771;48.180;11.400;2023-09-18T04:45:24;9.68;;;4.70;;
48006;SDS011;33771;48.180;11.400;2023-09-18T04:47:50;6.47;;;4.43;;
48006;SDS011;33771;48.180;11.400;2023-09-18T04:50:16;5.13;;;4.13;;
48006;SDS011;33771;48.180;11.400;2023-09-18T04:52:41;7.53;;;4.30;;
48006;SDS011;33771;48.180;11.400;2023-09-18T04:55:07;5.43;;;4.38;;
48006;SDS011;33771;48.180;11.400;2023-09-18T04:57:33;9.63;;;5.18;;
48006;SDS011;33771;48.180;11.400;2023-09-18T04:59:59;7.25;;;4.60;;
48006;SDS011;33771;48.180;11.400;2023-09-18T05:02:25;7.82;;;4.65;;
48006;SDS011;33771;48.180;11.400;2023-09-18T05:04:51;6.18;;;4.68;;
48006;SDS011;33771;48.180;11.400;2023-09-18T05:07:17;7.50;;;4.82;;
48006;SDS011;33771;48.180;11.400;2023-09-18T05:09:42;8.60;;;4.90;;
48006;SDS011;33771;48.180;11.400;2023-09-18T05:12:08;7.65;;;4.57;;
48006;SDS011;33771;48.180;11.400;2023-09-18T05:14:38;7.03;;;4.15;;
48006;SDS011;33771;48.180;11.400;2023-09-18T05:17:05;7.13;;;4.20;;
48006;SDS011;33771;48.180;11.400;2023-09-18T05:19:30;6.43;;;3.72;;
48006;SDS011;33771;48.180;11.400;2023-09-18T05:21:56;10.23;;;4.25;;
48006;SDS011;33771;48.180;11.400;2023-09-18T05:24:21;5.82;;;4.20;;
48006;SDS011;33771;48.180;11.400;2023-09-18T05:26:52;7.78;;;3.90;;
48006;SDS011;33771;48.180;11.400;2023-09-18T05:29:19;7.05;;;4.53;;
48006;SDS011;33771;48.180;11.400;2023-09-18T05:31:45;6.68;;;4.03;;
48006;SDS011;33771;48.180;11.400;2023-09-18T05:34:11;6.00;;;4.35;;
48006;SDS011;33771;48.180;11.400;2023-09-18T05:36:38;7.00;;;4.47;;
48006;SDS011;33771;48.180;11.400;2023-09-18T05:39:04;6.32;;;4.65;;
48006;SDS011;33771;48.180;11.400;2023-09-18T05:41:32;6.25;;;4.38;;
48006;SDS011;33771;48.180;11.400;2023-09-18T05:43:57;8.27;;;4.97;;
48006;SDS011;33771;48.180;11.400;2023-09-18T05:46:23;8.20;;;4.45;;
48006;SDS011;33771;48.180;11.400;2023-09-18T05:48:48;6.90;;;4.70;;
48006;SDS011;33771;48.180;11.400;2023-09-18T05:51:14;8.27;;;4.97;;
48006;SDS011;33771;48.180;11.400;2023-09-18T05:53:40;7.28;;;5.18;;
48006;SDS011;33771;48.180;11.400;2023-09-18T05:56:05;7.38;;;4.53;;
48006;SDS011;33771;48.180;11.400;2023-09-18T05:58:31;8.18;;;4.65;;
48006;SDS011;33771;48.180;11.400;2023-09-18T06:01:00;5.35;;;4.22;;
48006;SDS011;33771;48.180;11.400;2023-09-18T06:03:26;7.10;;;5.30;;
48006;SDS011;33771;48.180;11.400;2023-09-18T06:05:52;9.25;;;6.00;;
48006;SDS011;33771;48.180;11.400;2023-09-18T06:08:17;12.18;;;6.22;;
48006;SDS011;33771;48.180;11.400;2023-09-18T06:10:44;7.40;;;5.75;;
48006;SDS011;33771;48.180;11.400;2023-09-18T06:13:10;5.38;;;4.68;;
48006;SDS011;33771;48.180;11.400;2023-09-18T06:15:36;6.60;;;4.57;;
48006;SDS011;33771;48.180;11.400;2023-09-18T06:27:58;8.23;;;5.00;;
48006;SDS011;33771;48.180;11.400;2023-09-18T06:30:25;7.65;;;4.28;;
48006;SDS011;33771;48.180;11.400;2023-09-18T06:32:52;9.63;;;4.70;;
48006;SDS011;33771;48.180;11.400;2023-09-18T06:35:20;7.85;;;5.43;;
48006;SDS011;33771;48.180;11.400;2023-09-18T06:37:46;9.25;;;4.35;;
48006;SDS011;33771;48.180;11.400;2023-09-18T06:40:13;7.68;;;5.30;;
48006;SDS011;33771;48.180;11.400;2023-09-18T06:42:49;8.77;;;5.63;;
48006;SDS011;33771;48.180;11.400;2023-09-18T06:45:25;8.18;;;5.53;;
48006;SDS011;33771;48.180;11.400;2023-09-18T06:47:56;8.77;;;5.70;;
48006;SDS011;33771;48.180;11.400;2023-09-18T06:50:26;10.68;;;4.85;;
48006;SDS011;33771;48.180;11.400;2023-09-18T06:53:24;7.70;;;5.10;;
48006;SDS011;33771;48.180;11.400;2023-09-18T06:55:51;8.70;;;4.40;;
48006;SDS011;33771;48.180;11.400;2023-09-18T06:58:28;6.75;;;4.90;;
48006;SDS011;33771;48.180;11.400;2023-09-18T07:00:54;10.57;;;5.35;;
48006;SDS011;33771;48.180;11.400;2023-09-18T07:03:22;10.55;;;5.55;;
48006;SDS011;33771;48.180;11.400;2023-09-18T07:05:48;10.32;;;4.95;;
48006;SDS011;33771;48.180;11.400;2023-09-18T07:08:14;9.65;;;4.80;;
48006;SDS011;33771;48.180;11.400;2023-09-18T07:10:45;6.95;;;5.07;;
48006;SDS011;33771;48.180;11.400;2023-09-18T07:13:12;10.15;;;4.97;;
48006;SDS011;33771;48.180;11.400;2023-09-18T07:15:38;7.43;;;4.70;;
48006;SDS011;33771;48.180;11.400;2023-09-18T07:18:09;10.60;;;5.50;;
48006;SDS011;33771;48.180;11.400;2023-09-18T07:20:39;6.43;;;4.82;;
48006;SDS011;33771;48.180;11.400;2023-09-18T07:23:07;10.00;;;5.25;;
48006;SDS011;33771;48.180;11.400;2023-09-18T07:25:34;7.72;;;5.03;;
48006;SDS011;33771;48.180;11.400;2023-09-18T07:28:15;8.73;;;5.35;;
48006;SDS011;33771;48.180;11.400;2023-09-18T07:30:45;9.50;;;5.15;;
48006;SDS011;33771;48.180;11.400;2023-09-18T07:33:11;10.00;;;5.10;;
48006;SDS011;33771;48.180;11.400;2023-09-18T07:35:55;11.70;;;4.78;;
48006;SDS011;33771;48.180;11.400;2023-09-18T07:38:25;7.25;;;4.78;;
48006;SDS011;33771;48.180;11.400;2023-09-18T07:40:55;9.65;;;4.70;;
48006;SDS011;33771;48.180;11.400;2023-09-18T07:43:25;5.32;;;4.47;;
48006;SDS011;33771;48.180;11.400;2023-09-18T07:45:57;11.95;;;5.13;;
48006;SDS011;33771;48.180;11.400;2023-09-18T07:48:24;6.93;;;4.63;;
48006;SDS011;33771;48.180;11.400;2023-09-18T07:50:50;6.85;;;4.78;;
48006;SDS011;33771;48.180;11.400;2023-09-18T07:53:16;8.85;;;4.90;;
48006;SDS011;33771;48.180;11.400;2023-09-18T07:55:42;8.18;;;5.45;;
48006;SDS011;33771;48.180;11.400;2023-09-18T07:58:13;6.97;;;5.07;;
48006;SDS011;33771;48.180;11.400;2023-09-18T08:00:38;9.40;;;5.05;;
48006;SDS011;33771;48.180;11.400;2023-09-18T08:03:08;5.60;;;4.55;;
48006;SDS011;33771;48.180;11.400;2023-09-18T08:05:41;7.38;;;4.70;;
48006;SDS011;33771;48.180;11.400;2023-09-18T08:08:20;10.93;;;5.03;;
48006;SDS011;33771;48.180;11.400;2023-09-18T08:11:23;6.13;;;4.57;;
48006;SDS011;33771;48.180;11.400;2023-09-18T08:14:39;8.32;;;4.15;;
48006;SDS011;33771;48.180;11.400;2023-09-18T08:17:52;10.30;;;4.20;;
48006;SDS011;33771;48.180;11.400;2023-09-18T08:20:28;8.75;;;4.63;;
48006;SDS011;33771;48.180;11.400;2023-09-18T08:23:08;11.38;;;4.97;;
48006;SDS011;33771;48.180;11.400;2023-09-18T08:25:41;7.10;;;4.43;;
48006;SDS011;33771;48.180;11.400;2023-09-18T08:32:00;5.70;;;4.22;;
48006;SDS011;33771;48.180;11.400;2023-09-18T10:20:25;9.70;;;2.95;;
48006;SDS011;33771;48.180;11.400;2023-09-18T10:22:52;13.52;;;3.30;;
48006;SDS011;33771;48.180;11.400;2023-09-18T10:25:23;8.25;;;3.20;;
48006;SDS011;33771;48.180;11.400;2023-09-18T10:27:53;9.88;;;3.10;;
48006;SDS011;33771;48.180;11.400;2023-09-18T10:30:23;14.13;;;2.95;;
48006;SDS011;33771;48.180;11.400;2023-09-18T10:32:51;16.38;;;3.63;;
48006;SDS011;33771;48.180;11.400;2023-09-18T10:35:18;11.55;;;3.20;;
48006;SDS011;33771;48.180;11.400;2023-09-18T10:37:45;18.25;;;3.70;;
48006;SDS011;33771;48.180;11.400;2023-09-18T10:40:13;13.70;;;3.88;;
48006;SDS011;33771;48.180;11.400;2023-09-18T10:42:41;13.10;;;3.70;;
48006;SDS011;33771;48.180;11.400;2023-09-18T10:45:08;18.95;;;3.30;;
48006;SDS011;33771;48.180;11.400;2023-09-18T10:47:38;15.45;;;3.78;;
48006;SDS011;33771;48.180;11.400;2023-09-18T10:50:06;16.23;;;3.20;;
48006;SDS011;33771;48.180;11.400;2023-09-18T10:52:34;12.20;;;3.05;;
48006;SDS011;33771;48.180;11.400;2023-09-18T10:55:01;16.65;;;3.58;;
48006;SDS011;33771;48.180;11.400;2023-09-18T10:57:33;10.13;;;3.17;;
48006;SDS011;33771;48.180;11.400;2023-09-18T11:00:00;10.57;;;3.28;;
48006;SDS011;33771;48.180;11.400;2023-09-18T11:02:39;20.55;;;4.00;;
48006;SDS011;33771;48.180;11.400;2023-09-18T11:05:08;12.85;;;3.25;;
48006;SDS011;33771;48.180;11.400;2023-09-18T11:07:33;10.35;;;3.42;;
48006;SDS011;33771;48.180;11.400;2023-09-18T11:09:59;21.48;;;3.38;;
48006;SDS011;33771;48.180;11.400;2023-09-18T11:12:51;14.77;;;3.45;;
48006;SDS011;33771;48.180;11.400;2023-09-18T11:15:31;11.68;;;2.60;;
48006;SDS011;33771;48.180;11.400;2023-09-18T11:18:01;11.00;;;3.30;;
48006;SDS011;33771;48.180;11.400;2023-09-18T11:20:30;14.95;;;2.85;;
48006;SDS011;33771;48.180;11.400;2023-09-18T11:25:39;8.77;;;2.13;;
48006;SDS011;33771;48.180;11.400;2023-09-18T11:28:22;10.65;;;2.60;;
48006;SDS011;33771;48.180;11.400;2023-09-18T11:30:50;12.00;;;2.28;;
48006;SDS011;33771;48.180;11.400;2023-09-18T11:33:30;8.73;;;2.30;;
48006;SDS011;33771;48.180;11.400;2023-09-18T11:36:07;7.72;;;2.38;;
48006;SDS011;33771;48.180;11.400;2023-09-18T11:41:32;8.50;;;2.13;;
48006;SDS011;33771;48.180;11.400;2023-09-18T11:46:45;6.90;;;2.10;;
48006;SDS011;33771;48.180;11.400;2023-09-18T11:49:12;10.95;;;2.20;;
48006;SDS011;33771;48.180;11.400;2023-09-18T11:51:39;8.10;;;1.98;;
48006;SDS011;33771;48.180;11.400;2023-09-18T11:54:05;8.43;;;2.10;;
48006;SDS011;33771;48.180;11.400;2023-09-18T11:56:35;5.63;;;1.90;;
48006;SDS011;33771;48.180;11.400;2023-09-18T11:59:00;10.45;;;2.08;;
48006;SDS011;33771;48.180;11.400;2023-09-18T12:01:30;5.53;;;1.60;;
48006;SDS011;33771;48.180;11.400;2023-09-18T12:04:02;5.68;;;2.03;;
48006;SDS011;33771;48.180;11.400;2023-09-18T12:06:40;5.90;;;1.83;;
48006;SDS011;33771;48.180;11.400;2023-09-18T12:09:07;6.47;;;1.90;;
48006;SDS011;33771;48.180;11.400;2023-09-18T12:11:33;3.85;;;1.50;;
48006;SDS011;33771;48.180;11.400;2023-09-18T12:14:00;3.40;;;1.60;;
48006;SDS011;33771;48.180;11.400;2023-09-18T12:16:30;6.22;;;2.03;;
48006;SDS011;33771;48.180;11.400;2023-09-18T12:18:56;6.32;;;1.98;;
48006;SDS011;33771;48.180;11.400;2023-09-18T12:21:22;8.13;;;1.70;;
48006;SDS011;33771;48.180;11.400;2023-09-18T12:23:48;6.65;;;1.80;;
48006;SDS011;33771;48.180;11.400;2023-09-18T12:26:15;4.57;;;1.65;;
48006;SDS011;33771;48.180;11.400;2023-09-18T12:28:43;7.80;;;1.77;;
48006;SDS011;33771;48.180;11.400;2023-09-18T12:31:12;6.32;;;1.77;;
48006;SDS011;33771;48.180;11.400;2023-09-18T12:33:39;7.05;;;2.38;;
48006;SDS011;33771;48.180;11.400;2023-09-18T12:36:06;7.50;;;2.17;;
48006;SDS011;33771;48.180;11.400;2023-09-18T12:38:33;9.50;;;2.80;;
48006;SDS011;33771;48.180;11.400;2023-09-18T12:40:59;6.90;;;2.05;;
48006;SDS011;33771;48.180;11.400;2023-09-18T12:43:39;5.55;;;1.95;;
48006;SDS011;33771;48.180;11.400;2023-09-18T12:46:08;4.78;;;2.10;;
48006;SDS011;33771;48.180;11.400;2023-09-18T12:48:37;6.15;;;1.90;;
48006;SDS011;33771;48.180;11.400;2023-09-18T12:51:07;7.18;;;2.00;;
48006;SDS011;33771;48.180;11.400;2023-09-18T12:53:33;4.22;;;1.45;;
48006;SDS011;33771;48.180;11.400;2023-09-18T12:56:11;3.42;;;1.77;;
48006;SDS011;33771;48.180;11.400;2023-09-18T12:58:38;4.15;;;1.40;;
48006;SDS011;33771;48.180;11.400;2023-09-18T13:01:07;4.22;;;1.50;;
48006;SDS011;33771;48.180;11.400;2023-09-18T13:03:41;5.68;;;1.70;;
48006;SDS011;33771;48.180;11.400;2023-09-18T13:06:09;3.47;;;1.73;;
48006;SDS011;33771;48.180;11.400;2023-09-18T13:08:36;2.70;;;1.50;;
48006;SDS011;33771;48.180;11.400;2023-09-18T13:11:02;6.13;;;1.60;;
48006;SDS011;33771;48.180;11.400;2023-09-18T13:13:31;9.20;;;2.35;;
48006;SDS011;33771;48.180;11.400;2023-09-18T13:15:58;4.50;;;1.60;;
48006;SDS011;33771;48.180;11.400;2023-09-18T13:18:24;2.53;;;1.50;;
48006;SDS011;33771;48.180;11.400;2023-09-18T13:20:51;4.25;;;1.55;;
48006;SDS011;33771;48.180;11.400;2023-09-18T13:23:17;5.35;;;1.73;;
48006;SDS011;33771;48.180;11.400;2023-09-18T13:25:43;5.53;;;1.77;;
48006;SDS011;33771;48.180;11.400;2023-09-18T13:28:09;4.43;;;1.90;;
48006;SDS011;33771;48.180;11.400;2023-09-18T13:30:36;4.05;;;1.80;;
48006;SDS011;33771;48.180;11.400;2023-09-18T13:33:07;4.40;;;1.75;;
48006;SDS011;33771;48.180;11.400;2023-09-18T13:35:35;7.03;;;2.13;;
48006;SDS011;33771;48.180;11.400;2023-09-18T13:38:02;4.72;;;1.60;;
48006;SDS011;33771;48.180;11.400;2023-09-18T13:40:33;4.75;;;1.92;;
48006;SDS011;33771;48.180;11.400;2023-09-18T13:43:01;4.28;;;1.80;;
48006;SDS011;33771;48.180;11.400;2023-09-18T13:45:29;5.55;;;1.88;;
48006;SDS011;33771;48.180;11.400;2023-09-18T13:47:58;9.25;;;2.13;;
48006;SDS011;33771;48.180;11.400;2023-09-18T13:50:24;6.40;;;2.42;;
48006;SDS011;33771;48.180;11.400;2023-09-18T13:52:49;3.65;;;1.98;;
48006;SDS011;33771;48.180;11.400;2023-09-18T13:55:16;6.55;;;2.20;;
48006;SDS011;33771;48.180;11.400;2023-09-18T13:57:41;5.60;;;1.80;;
48006;SDS011;33771;48.180;11.400;2023-09-18T14:00:07;4.72;;;1.88;;
48006;SDS011;33771;48.180;11.400;2023-09-18T14:02:37;4.35;;;1.60;;
48006;SDS011;33771;48.180;11.400;2023-09-18T14:05:03;3.40;;;1.50;;
48006;SDS011;33771;48.180;11.400;2023-09-18T14:07:29;3.55;;;1.60;;
48006;SDS011;33771;48.180;11.400;2023-09-18T14:09:55;2.97;;;1.50;;
48006;SDS011;33771;48.180;11.400;2023-09-18T14:12:21;4.63;;;1.70;;
48006;SDS011;33771;48.180;11.400;2023-09-18T14:14:46;4.97;;;1.45;;
48006;SDS011;33771;48.180;11.400;2023-09-18T14:17:12;6.63;;;2.38;;
48006;SDS011;33771;48.180;11.400;2023-09-18T14:19:38;4.22;;;1.70;;
48006;SDS011;33771;48.180;11.400;2023-09-18T14:22:07;6.47;;;1.58;;
48006;SDS011;33771;48.180;11.400;2023-09-18T14:24:33;6.20;;;1.75;;
48006;SDS011;33771;48.180;11.400;2023-09-18T14:27:00;3.47;;;1.25;;
48006;SDS011;33771;48.180;11.400;2023-09-18T14:29:26;3.10;;;1.45;;
48006;SDS011;33771;48.180;11.400;2023-09-18T14:31:51;5.60;;;1.77;;
48006;SDS011;33771;48.180;11.400;2023-09-18T14:34:17;3.60;;;1.50;;
48006;SDS011;33771;48.180;11.400;2023-09-18T14:36:43;4.90;;;1.50;;
48006;SDS011;33771;48.180;11.400;2023-09-18T14:39:09;4.68;;;1.50;;
48006;SDS011;33771;48.180;11.400;2023-09-18T14:41:36;4.85;;;1.67;;
48006;SDS011;33771;48.180;11.400;2023-09-18T14:44:03;4.88;;;1.60;;
48006;SDS011;33771;48.180;11.400;2023-09-18T14:46:29;5.72;;;1.50;;
48006;SDS011;33771;48.180;11.400;2023-09-18T14:48:58;7.15;;;1.48;;
48006;SDS011;33771;48.180;11.400;2023-09-18T14:51:27;7.00;;;1.67;;
48006;SDS011;33771;48.180;11.400;2023-09-18T14:53:56;3.20;;;1.70;;
48006;SDS011;33771;48.180;11.400;2023-09-18T14:56:26;4.40;;;1.38;;
48006;SDS011;33771;48.180;11.400;2023-09-18T14:58:51;4.63;;;1.30;;
48006;SDS011;33771;48.180;11.400;2023-09-18T15:01:20;4.25;;;1.52;;
48006;SDS011;33771;48.180;11.400;2023-09-18T15:03:47;5.05;;;1.52;;
48006;SDS011;33771;48.180;11.400;2023-09-18T15:06:15;5.47;;;2.67;;
48006;SDS011;33771;48.180;11.400;2023-09-18T15:08:42;3.78;;;1.90;;
48006;SDS011;33771;48.180;11.400;2023-09-18T15:11:07;6.15;;;1.73;;
48006;SDS011;33771;48.180;11.400;2023-09-18T15:13:34;4.28;;;1.42;;
48006;SDS011;33771;48.180;11.400;2023-09-18T15:16:03;2.58;;;1.27;;
48006;SDS011;33771;48.180;11.400;2023-09-18T15:18:28;3.13;;;1.42;;
48006;SDS011;33771;48.180;11.400;2023-09-18T15:20:54;6.20;;;2.08;;
48006;SDS011;33771;48.180;11.400;2023-09-18T15:23:20;2.83;;;1.60;;
48006;SDS011;33771;48.180;11.400;2023-09-18T15:25:50;2.53;;;1.50;;
48006;SDS011;33771;48.180;11.400;2023-09-18T15:28:18;3.17;;;1.40;;
48006;SDS011;33771;48.180;11.400;2023-09-18T15:30:44;4.00;;;1.45;;
48006;SDS011;33771;48.180;11.400;2023-09-18T15:33:10;4.55;;;1.23;;
48006;SDS011;33771;48.180;11.400;2023-09-18T15:35:36;5.47;;;1.15;;
48006;SDS011;33771;48.180;11.400;2023-09-18T15:38:02;3.15;;;1.45;;
48006;SDS011;33771;48.180;11.400;2023-09-18T15:40:28;5.10;;;1.35;;
48006;SDS011;33771;48.180;11.400;2023-09-18T15:42:54;3.25;;;1.40;;
48006;SDS011;33771;48.180;11.400;2023-09-18T15:45:19;3.20;;;1.13;;
48006;SDS011;33771;48.180;11.400;2023-09-18T15:47:45;5.65;;;1.75;;
48006;SDS011;33771;48.180;11.400;2023-09-18T15:50:11;4.50;;;1.40;;
48006;SDS011;33771;48.180;11.400;2023-09-18T15:52:37;3.78;;;1.15;;
48006;SDS011;33771;48.180;11.400;2023-09-18T15:55:04;3.40;;;1.13;;
48006;SDS011;33771;48.180;11.400;2023-09-18T15:57:30;3.40;;;1.40;;
48006;SDS011;33771;48.180;11.400;2023-09-18T16:00:03;5.65;;;1.27;;
48006;SDS011;33771;48.180;11.400;2023-09-18T16:02:31;3.13;;;1.10;;
48006;SDS011;33771;48.180;11.400;2023-09-18T16:04:57;2.35;;;1.33;;
48006;SDS011;33771;48.180;11.400;2023-09-18T16:07:23;5.88;;;1.45;;
48006;SDS011;33771;48.180;11.400;2023-09-18T16:09:51;2.60;;;1.10;;
48006;SDS011;33771;48.180;11.400;2023-09-18T16:12:18;1.80;;;1.00;;
48006;SDS011;33771;48.180;11.400;2023-09-18T16:14:43;2.70;;;1.08;;
48006;SDS011;33771;48.180;11.400;2023-09-18T16:17:09;3.97;;;1.20;;
48006;SDS011;33771;48.180;11.400;2023-09-18T16:19:34;3.88;;;1.20;;
48006;SDS011;33771;48.180;11.400;2023-09-18T16:22:00;8.40;;;1.65;;
48006;SDS011;33771;48.180;11.400;2023-09-18T16:24:26;2.80;;;1.27;;
48006;SDS011;33771;48.180;11.400;2023-09-18T16:26:52;3.03;;;1.20;;
48006;SDS011;33771;48.180;11.400;2023-09-18T16:29:18;1.83;;;1.17;;
48006;SDS011;33771;48.180;11.400;2023-09-18T16:31:48;2.20;;;1.20;;
48006;SDS011;33771;48.180;11.400;2023-09-18T16:34:14;3.50;;;1.13;;
48006;SDS011;33771;48.180;11.400;2023-09-18T16:36:40;3.03;;;1.20;;
48006;SDS011;33771;48.180;11.400;2023-09-18T16:39:05;3.50;;;1.38;;
48006;SDS011;33771;48.180;11.400;2023-09-18T16:41:31;3.30;;;1.52;;
48006;SDS011;33771;48.180;11.400;2023-09-18T16:43:57;2.00;;;1.17;;
48006;SDS011;33771;48.180;11.400;2023-09-18T16:46:22;3.83;;;1.17;;